sensor_id;sensor_type;location;lat;lon;timestamp;temperature;humidity
29201;DHT22;16244;51.956;12.980;2022-11-23T00:00:32;0.00;98.10
29201;DHT22;16244;51.956;12.980;2022-11-23T00:02:59;0.00;98.10
29201;DHT22;16244;51.956;12.980;2022-11-23T00:05:29;0.00;98.10
29201;DHT22;16244;51.956;12.980;2022-11-23T00:07:56;-0.10;98.20
29201;DHT22;16244;51.956;12.980;2022-11-23T00:10:23;-0.10;98.20
29201;DHT22;16244;51.956;12.980;2022-11-23T00:12:50;-0.10;98.30
29201;DHT22;16244;51.956;12.980;2022-11-23T00:15:17;-0.10;98.50
29201;DHT22;16244;51.956;12.980;2022-11-23T00:17:46;-0.10;98.40
29201;DHT22;16244;51.956;12.980;2022-11-23T00:20:13;-0.20;98.50
29201;DHT22;16244;51.956;12.980;2022-11-23T00:22:41;-0.10;98.50
29201;DHT22;16244;51.956;12.980;2022-11-23T00:25:08;-0.10;98.50
29201;DHT22;16244;51.956;12.980;2022-11-23T00:27:35;-0.10;98.50
29201;DHT22;16244;51.956;12.980;2022-11-23T00:30:03;0.00;98.50
29201;DHT22;16244;51.956;12.980;2022-11-23T00:32:30;0.10;98.60
29201;DHT22;16244;51.956;12.980;2022-11-23T00:34:57;0.20;98.70
29201;DHT22;16244;51.956;12.980;2022-11-23T00:37:24;0.30;98.70
29201;DHT22;16244;51.956;12.980;2022-11-23T00:39:53;0.20;98.60
29201;DHT22;16244;51.956;12.980;2022-11-23T00:42:20;0.10;98.70
29201;DHT22;16244;51.956;12.980;2022-11-23T00:44:47;0.10;98.80
29201;DHT22;16244;51.956;12.980;2022-11-23T00:47:14;0.10;98.90
29201;DHT22;16244;51.956;12.980;2022-11-23T00:49:41;0.10;98.90
29201;DHT22;16244;51.956;12.980;2022-11-23T00:52:09;0.20;98.90
29201;DHT22;16244;51.956;12.980;2022-11-23T00:54:36;0.20;98.90
29201;DHT22;16244;51.956;12.980;2022-11-23T00:57:04;0.20;98.80
29201;DHT22;16244;51.956;12.980;2022-11-23T00:59:31;0.20;98.70
29201;DHT22;16244;51.956;12.980;2022-11-23T01:01:58;0.20;98.80
29201;DHT22;16244;51.956;12.980;2022-11-23T01:04:25;0.30;98.80
29201;DHT22;16244;51.956;12.980;2022-11-23T01:06:55;0.30;98.80
29201;DHT22;16244;51.956;12.980;2022-11-23T01:09:22;0.30;98.80
29201;DHT22;16244;51.956;12.980;2022-11-23T01:11:52;0.40;98.80
29201;DHT22;16244;51.956;12.980;2022-11-23T01:14:21;0.40;98.80
29201;DHT22;16244;51.956;12.980;2022-11-23T01:16:49;0.50;98.70
29201;DHT22;16244;51.956;12.980;2022-11-23T01:19:17;0.50;98.80
29201;DHT22;16244;51.956;12.980;2022-11-23T01:21:44;0.50;98.70
29201;DHT22;16244;51.956;12.980;2022-11-23T01:24:14;0.50;98.70
29201;DHT22;16244;51.956;12.980;2022-11-23T01:26:42;0.60;98.70
29201;DHT22;16244;51.956;12.980;2022-11-23T01:29:10;0.60;98.70
29201;DHT22;16244;51.956;12.980;2022-11-23T01:31:39;0.70;98.60
29201;DHT22;16244;51.956;12.980;2022-11-23T01:34:07;0.70;98.60
29201;DHT22;16244;51.956;12.980;2022-11-23T01:36:34;0.80;98.60
29201;DHT22;16244;51.956;12.980;2022-11-23T01:39:02;0.80;98.60
29201;DHT22;16244;51.956;12.980;2022-11-23T01:41:32;0.80;99.00
29201;DHT22;16244;51.956;12.980;2022-11-23T01:44:00;0.80;98.60
29201;DHT22;16244;51.956;12.980;2022-11-23T01:46:27;0.80;98.60
29201;DHT22;16244;51.956;12.980;2022-11-23T01:49:00;0.70;98.60
29201;DHT22;16244;51.956;12.980;2022-11-23T01:51:31;0.70;98.60
29201;DHT22;16244;51.956;12.980;2022-11-23T01:54:01;0.60;98.70
29201;DHT22;16244;51.956;12.980;2022-11-23T01:56:31;0.50;98.70
29201;DHT22;16244;51.956;12.980;2022-11-23T01:59:01;0.50;98.80
29201;DHT22;16244;51.956;12.980;2022-11-23T02:01:30;0.50;98.80
29201;DHT22;16244;51.956;12.980;2022-11-23T02:04:00;0.50;98.80
29201;DHT22;16244;51.956;12.980;2022-11-23T02:06:29;0.50;98.70
29201;DHT22;16244;51.956;12.980;2022-11-23T02:08:58;0.50;98.60
29201;DHT22;16244;51.956;12.980;2022-11-23T02:11:25;0.40;98.40
29201;DHT22;16244;51.956;12.980;2022-11-23T02:13:52;0.30;98.40
29201;DHT22;16244;51.956;12.980;2022-11-23T02:16:21;0.20;98.40
29201;DHT22;16244;51.956;12.980;2022-11-23T02:18:52;0.20;98.50
29201;DHT22;16244;51.956;12.980;2022-11-23T02:21:21;0.20;98.50
29201;DHT22;16244;51.956;12.980;2022-11-23T02:23:53;0.20;98.60
29201;DHT22;16244;51.956;12.980;2022-11-23T02:26:24;0.20;98.60
29201;DHT22;16244;51.956;12.980;2022-11-23T02:28:54;0.20;98.50
29201;DHT22;16244;51.956;12.980;2022-11-23T02:31:23;0.30;98.60
29201;DHT22;16244;51.956;12.980;2022-11-23T02:33:50;0.30;98.40
29201;DHT22;16244;51.956;12.980;2022-11-23T02:36:30;0.30;98.30
29201;DHT22;16244;51.956;12.980;2022-11-23T02:39:01;0.30;98.20
29201;DHT22;16244;51.956;12.980;2022-11-23T02:41:35;0.30;98.20
29201;DHT22;16244;51.956;12.980;2022-11-23T02:44:03;0.30;98.20
29201;DHT22;16244;51.956;12.980;2022-11-23T02:46:33;0.20;98.20
29201;DHT22;16244;51.956;12.980;2022-11-23T02:49:00;0.20;98.50
29201;DHT22;16244;51.956;12.980;2022-11-23T02:51:28;0.30;98.50
29201;DHT22;16244;51.956;12.980;2022-11-23T02:53:56;0.30;98.60
29201;DHT22;16244;51.956;12.980;2022-11-23T02:56:23;0.30;98.60
29201;DHT22;16244;51.956;12.980;2022-11-23T02:58:51;0.30;98.70
29201;DHT22;16244;51.956;12.980;2022-11-23T03:01:18;0.30;98.70
29201;DHT22;16244;51.956;12.980;2022-11-23T03:03:46;0.40;98.80
29201;DHT22;16244;51.956;12.980;2022-11-23T03:06:13;0.40;98.80
29201;DHT22;16244;51.956;12.980;2022-11-23T03:08:40;0.40;98.80
29201;DHT22;16244;51.956;12.980;2022-11-23T03:11:08;0.50;98.70
29201;DHT22;16244;51.956;12.980;2022-11-23T03:13:35;0.50;98.70
29201;DHT22;16244;51.956;12.980;2022-11-23T03:16:04;0.60;98.70
29201;DHT22;16244;51.956;12.980;2022-11-23T03:18:31;0.60;98.60
29201;DHT22;16244;51.956;12.980;2022-11-23T03:21:01;0.60;98.60
29201;DHT22;16244;51.956;12.980;2022-11-23T03:23:29;0.70;98.70
29201;DHT22;16244;51.956;12.980;2022-11-23T03:25:57;0.70;98.60
29201;DHT22;16244;51.956;12.980;2022-11-23T03:28:25;0.60;98.60
29201;DHT22;16244;51.956;12.980;2022-11-23T03:30:52;0.60;98.80
29201;DHT22;16244;51.956;12.980;2022-11-23T03:33:21;0.60;98.90
29201;DHT22;16244;51.956;12.980;2022-11-23T03:35:48;0.60;98.80
29201;DHT22;16244;51.956;12.980;2022-11-23T03:38:15;0.70;98.80
29201;DHT22;16244;51.956;12.980;2022-11-23T03:40:43;0.80;98.70
29201;DHT22;16244;51.956;12.980;2022-11-23T03:43:11;0.70;98.70
29201;DHT22;16244;51.956;12.980;2022-11-23T03:45:38;0.70;98.80
29201;DHT22;16244;51.956;12.980;2022-11-23T03:48:05;0.70;98.90
29201;DHT22;16244;51.956;12.980;2022-11-23T03:50:34;0.80;98.80
29201;DHT22;16244;51.956;12.980;2022-11-23T03:53:01;0.80;98.70
29201;DHT22;16244;51.956;12.980;2022-11-23T03:55:28;0.90;98.70
29201;DHT22;16244;51.956;12.980;2022-11-23T03:57:55;0.80;98.70
29201;DHT22;16244;51.956;12.980;2022-11-23T04:00:25;0.80;98.70
29201;DHT22;16244;51.956;12.980;2022-11-23T04:02:52;0.80;98.70
29201;DHT22;16244;51.956;12.980;2022-11-23T04:05:19;0.90;98.60
29201;DHT22;16244;51.956;12.980;2022-11-23T04:07:48;1.00;98.60
29201;DHT22;16244;51.956;12.980;2022-11-23T04:10:17;0.90;98.60
29201;DHT22;16244;51.956;12.980;2022-11-23T04:12:44;0.90;98.60
29201;DHT22;16244;51.956;12.980;2022-11-23T04:17:43;0.90;98.60
29201;DHT22;16244;51.956;12.980;2022-11-23T04:20:11;0.80;98.70
29201;DHT22;16244;51.956;12.980;2022-11-23T04:22:38;0.80;98.70
29201;DHT22;16244;51.956;12.980;2022-11-23T04:25:08;0.90;98.80
29201;DHT22;16244;51.956;12.980;2022-11-23T04:27:35;0.80;98.80
29201;DHT22;16244;51.956;12.980;2022-11-23T04:30:03;0.80;98.90
29201;DHT22;16244;51.956;12.980;2022-11-23T04:32:30;0.80;98.90
29201;DHT22;16244;51.956;12.980;2022-11-23T04:34:57;0.90;98.90
29201;DHT22;16244;51.956;12.980;2022-11-23T04:37:24;1.00;98.90
29201;DHT22;16244;51.956;12.980;2022-11-23T04:39:51;1.10;98.80
29201;DHT22;16244;51.956;12.980;2022-11-23T04:42:20;1.10;98.60
29201;DHT22;16244;51.956;12.980;2022-11-23T04:44:47;1.10;98.60
29201;DHT22;16244;51.956;12.980;2022-11-23T04:47:14;1.20;98.60
29201;DHT22;16244;51.956;12.980;2022-11-23T04:49:41;1.20;98.60
29201;DHT22;16244;51.956;12.980;2022-11-23T04:52:08;1.20;98.60
29201;DHT22;16244;51.956;12.980;2022-11-23T04:54:35;1.20;98.60
29201;DHT22;16244;51.956;12.980;2022-11-23T04:57:03;1.20;98.60
29201;DHT22;16244;51.956;12.980;2022-11-23T04:59:31;1.20;98.70
29201;DHT22;16244;51.956;12.980;2022-11-23T05:01:58;1.20;98.70
29201;DHT22;16244;51.956;12.980;2022-11-23T05:04:25;1.20;98.70
29201;DHT22;16244;51.956;12.980;2022-11-23T05:06:52;1.30;98.70
29201;DHT22;16244;51.956;12.980;2022-11-23T05:09:19;1.30;98.60
29201;DHT22;16244;51.956;12.980;2022-11-23T05:11:46;1.30;98.40
29201;DHT22;16244;51.956;12.980;2022-11-23T05:14:13;1.30;98.40
29201;DHT22;16244;51.956;12.980;2022-11-23T05:16:42;1.30;98.40
29201;DHT22;16244;51.956;12.980;2022-11-23T05:19:09;1.30;98.40
29201;DHT22;16244;51.956;12.980;2022-11-23T05:21:36;1.20;98.30
29201;DHT22;16244;51.956;12.980;2022-11-23T05:24:03;1.10;98.40
29201;DHT22;16244;51.956;12.980;2022-11-23T05:26:31;1.10;98.40
29201;DHT22;16244;51.956;12.980;2022-11-23T05:28:58;1.10;98.40
29201;DHT22;16244;51.956;12.980;2022-11-23T05:31:25;1.10;98.40
29201;DHT22;16244;51.956;12.980;2022-11-23T05:33:53;1.00;98.40
29201;DHT22;16244;51.956;12.980;2022-11-23T05:36:20;1.00;98.90
29201;DHT22;16244;51.956;12.980;2022-11-23T05:38:47;1.00;98.50
29201;DHT22;16244;51.956;12.980;2022-11-23T05:41:14;1.10;98.40
29201;DHT22;16244;51.956;12.980;2022-11-23T05:43:41;1.10;98.30
29201;DHT22;16244;51.956;12.980;2022-11-23T05:46:08;1.10;98.20
29201;DHT22;16244;51.956;12.980;2022-11-23T05:48:35;1.00;98.20
29201;DHT22;16244;51.956;12.980;2022-11-23T05:51:04;1.00;98.20
29201;DHT22;16244;51.956;12.980;2022-11-23T05:53:31;0.90;98.30
29201;DHT22;16244;51.956;12.980;2022-11-23T05:56:02;0.90;98.30
29201;DHT22;16244;51.956;12.980;2022-11-23T05:58:29;0.80;98.20
29201;DHT22;16244;51.956;12.980;2022-11-23T06:00:57;0.70;98.20
29201;DHT22;16244;51.956;12.980;2022-11-23T06:03:24;0.70;98.20
29201;DHT22;16244;51.956;12.980;2022-11-23T06:05:51;0.60;98.20
29201;DHT22;16244;51.956;12.980;2022-11-23T06:08:20;0.70;98.20
29201;DHT22;16244;51.956;12.980;2022-11-23T06:10:47;0.60;98.10
29201;DHT22;16244;51.956;12.980;2022-11-23T06:13:14;0.60;98.10
29201;DHT22;16244;51.956;12.980;2022-11-23T06:15:41;0.60;98.00
29201;DHT22;16244;51.956;12.980;2022-11-23T06:18:08;0.50;97.90
29201;DHT22;16244;51.956;12.980;2022-11-23T06:20:35;0.50;97.90
29201;DHT22;16244;51.956;12.980;2022-11-23T06:23:03;0.50;98.00
29201;DHT22;16244;51.956;12.980;2022-11-23T06:25:31;0.50;98.10
29201;DHT22;16244;51.956;12.980;2022-11-23T06:27:59;0.40;98.10
29201;DHT22;16244;51.956;12.980;2022-11-23T06:30:27;0.40;98.50
29201;DHT22;16244;51.956;12.980;2022-11-23T06:32:55;0.50;98.00
29201;DHT22;16244;51.956;12.980;2022-11-23T06:35:22;0.40;98.00
29201;DHT22;16244;51.956;12.980;2022-11-23T06:37:50;0.30;98.10
29201;DHT22;16244;51.956;12.980;2022-11-23T06:40:18;0.30;98.10
29201;DHT22;16244;51.956;12.980;2022-11-23T06:42:46;0.20;98.10
29201;DHT22;16244;51.956;12.980;2022-11-23T06:45:14;0.10;98.10
29201;DHT22;16244;51.956;12.980;2022-11-23T06:47:41;0.10;98.20
29201;DHT22;16244;51.956;12.980;2022-11-23T06:50:08;0.10;98.20
29201;DHT22;16244;51.956;12.980;2022-11-23T06:52:35;0.10;98.20
29201;DHT22;16244;51.956;12.980;2022-11-23T06:55:03;0.10;98.20
29201;DHT22;16244;51.956;12.980;2022-11-23T06:57:30;0.00;98.10
29201;DHT22;16244;51.956;12.980;2022-11-23T06:59:59;0.00;98.10
29201;DHT22;16244;51.956;12.980;2022-11-23T07:02:26;0.00;98.10
29201;DHT22;16244;51.956;12.980;2022-11-23T07:04:53;-0.10;98.10
29201;DHT22;16244;51.956;12.980;2022-11-23T07:07:20;-0.10;98.10
29201;DHT22;16244;51.956;12.980;2022-11-23T07:09:47;-0.10;98.10
29201;DHT22;16244;51.956;12.980;2022-11-23T07:12:14;-0.10;98.10
29201;DHT22;16244;51.956;12.980;2022-11-23T07:14:41;-0.10;98.20
29201;DHT22;16244;51.956;12.980;2022-11-23T07:17:09;0.00;98.10
29201;DHT22;16244;51.956;12.980;2022-11-23T07:19:36;0.00;98.10
29201;DHT22;16244;51.956;12.980;2022-11-23T07:22:03;0.00;98.00
29201;DHT22;16244;51.956;12.980;2022-11-23T07:24:30;-0.10;97.90
29201;DHT22;16244;51.956;12.980;2022-11-23T07:26:58;0.00;98.00
29201;DHT22;16244;51.956;12.980;2022-11-23T07:29:25;0.00;98.00
29201;DHT22;16244;51.956;12.980;2022-11-23T07:31:52;0.00;97.90
29201;DHT22;16244;51.956;12.980;2022-11-23T07:34:20;0.00;98.00
29201;DHT22;16244;51.956;12.980;2022-11-23T07:36:47;0.10;98.10
29201;DHT22;16244;51.956;12.980;2022-11-23T07:39:14;0.10;98.20
29201;DHT22;16244;51.956;12.980;2022-11-23T07:41:41;0.20;98.40
29201;DHT22;16244;51.956;12.980;2022-11-23T07:44:08;0.30;98.70
29201;DHT22;16244;51.956;12.980;2022-11-23T07:46:35;0.30;98.60
29201;DHT22;16244;51.956;12.980;2022-11-23T07:49:02;0.40;98.70
29201;DHT22;16244;51.956;12.980;2022-11-23T07:51:31;0.40;98.70
29201;DHT22;16244;51.956;12.980;2022-11-23T07:53:58;0.50;98.70
29201;DHT22;16244;51.956;12.980;2022-11-23T07:56:26;0.60;98.70
29201;DHT22;16244;51.956;12.980;2022-11-23T07:58:53;0.60;98.70
29201;DHT22;16244;51.956;12.980;2022-11-23T08:01:21;0.60;98.70
29201;DHT22;16244;51.956;12.980;2022-11-23T08:03:49;0.70;98.70
29201;DHT22;16244;51.956;12.980;2022-11-23T08:06:17;0.70;98.60
29201;DHT22;16244;51.956;12.980;2022-11-23T08:08:45;0.70;98.60
29201;DHT22;16244;51.956;12.980;2022-11-23T08:11:15;0.90;98.70
29201;DHT22;16244;51.956;12.980;2022-11-23T08:13:46;0.80;98.50
29201;DHT22;16244;51.956;12.980;2022-11-23T08:16:14;0.80;98.50
29201;DHT22;16244;51.956;12.980;2022-11-23T08:18:42;0.90;98.60
29201;DHT22;16244;51.956;12.980;2022-11-23T08:21:09;0.90;98.70
29201;DHT22;16244;51.956;12.980;2022-11-23T08:23:37;1.00;98.80
29201;DHT22;16244;51.956;12.980;2022-11-23T08:26:06;1.00;98.80
29201;DHT22;16244;51.956;12.980;2022-11-23T08:28:34;1.20;98.90
29201;DHT22;16244;51.956;12.980;2022-11-23T08:31:05;1.20;98.90
29201;DHT22;16244;51.956;12.980;2022-11-23T08:33:33;1.30;98.90
29201;DHT22;16244;51.956;12.980;2022-11-23T08:36:03;1.30;98.90
29201;DHT22;16244;51.956;12.980;2022-11-23T08:38:31;1.40;99.00
29201;DHT22;16244;51.956;12.980;2022-11-23T08:40:59;1.50;99.00
29201;DHT22;16244;51.956;12.980;2022-11-23T08:43:28;1.60;99.10
29201;DHT22;16244;51.956;12.980;2022-11-23T08:45:56;1.70;99.10
29201;DHT22;16244;51.956;12.980;2022-11-23T08:48:24;1.90;99.10
29201;DHT22;16244;51.956;12.980;2022-11-23T08:50:51;1.90;99.10
29201;DHT22;16244;51.956;12.980;2022-11-23T08:53:19;1.90;99.00
29201;DHT22;16244;51.956;12.980;2022-11-23T08:55:46;2.00;99.00
29201;DHT22;16244;51.956;12.980;2022-11-23T08:58:13;2.10;99.00
29201;DHT22;16244;51.956;12.980;2022-11-23T09:00:42;2.20;99.00
29201;DHT22;16244;51.956;12.980;2022-11-23T09:03:09;2.40;99.00
29201;DHT22;16244;51.956;12.980;2022-11-23T09:05:38;2.60;98.80
29201;DHT22;16244;51.956;12.980;2022-11-23T09:08:07;2.90;98.60
29201;DHT22;16244;51.956;12.980;2022-11-23T09:10:36;3.20;98.40
29201;DHT22;16244;51.956;12.980;2022-11-23T09:13:05;3.40;98.40
29201;DHT22;16244;51.956;12.980;2022-11-23T09:15:35;3.60;98.20
29201;DHT22;16244;51.956;12.980;2022-11-23T09:18:09;3.90;97.50
29201;DHT22;16244;51.956;12.980;2022-11-23T09:20:43;4.00;97.10
29201;DHT22;16244;51.956;12.980;2022-11-23T09:23:13;4.20;96.60
29201;DHT22;16244;51.956;12.980;2022-11-23T09:25:40;4.30;96.20
29201;DHT22;16244;51.956;12.980;2022-11-23T09:28:28;4.40;95.90
29201;DHT22;16244;51.956;12.980;2022-11-23T09:30:57;4.70;96.00
29201;DHT22;16244;51.956;12.980;2022-11-23T09:33:40;4.80;95.10
29201;DHT22;16244;51.956;12.980;2022-11-23T09:36:12;4.90;95.20
29201;DHT22;16244;51.956;12.980;2022-11-23T09:38:46;4.90;94.50
29201;DHT22;16244;51.956;12.980;2022-11-23T09:41:39;5.10;94.40
29201;DHT22;16244;51.956;12.980;2022-11-23T09:44:17;5.10;94.10
29201;DHT22;16244;51.956;12.980;2022-11-23T09:46:55;5.20;93.70
29201;DHT22;16244;51.956;12.980;2022-11-23T09:49:35;5.20;93.70
29201;DHT22;16244;51.956;12.980;2022-11-23T09:52:15;5.30;93.70
29201;DHT22;16244;51.956;12.980;2022-11-23T09:54:45;5.40;93.50
29201;DHT22;16244;51.956;12.980;2022-11-23T09:57:19;5.40;93.20
29201;DHT22;16244;51.956;12.980;2022-11-23T09:59:53;5.50;93.50
29201;DHT22;16244;51.956;12.980;2022-11-23T10:02:25;5.60;93.00
29201;DHT22;16244;51.956;12.980;2022-11-23T10:05:04;5.60;93.00
29201;DHT22;16244;51.956;12.980;2022-11-23T10:08:01;5.70;92.80
29201;DHT22;16244;51.956;12.980;2022-11-23T10:11:06;5.70;93.10
29201;DHT22;16244;51.956;12.980;2022-11-23T10:14:12;5.70;93.50
29201;DHT22;16244;51.956;12.980;2022-11-23T10:16:56;5.80;92.80
29201;DHT22;16244;51.956;12.980;2022-11-23T10:41:01;6.30;92.50
29201;DHT22;16244;51.956;12.980;2022-11-23T10:43:34;6.30;92.30
29201;DHT22;16244;51.956;12.980;2022-11-23T10:46:24;6.40;92.40
29201;DHT22;16244;51.956;12.980;2022-11-23T10:48:52;6.50;92.40
29201;DHT22;16244;51.956;12.980;2022-11-23T10:51:26;6.50;92.00
29201;DHT22;16244;51.956;12.980;2022-11-23T10:53:57;6.60;91.70
29201;DHT22;16244;51.956;12.980;2022-11-23T10:56:27;6.60;91.70
29201;DHT22;16244;51.956;12.980;2022-11-23T10:58:54;6.70;91.90
29201;DHT22;16244;51.956;12.980;2022-11-23T11:01:23;6.70;91.60
29201;DHT22;16244;51.956;12.980;2022-11-23T11:03:51;6.60;91.40
29201;DHT22;16244;51.956;12.980;2022-11-23T11:06:23;6.60;91.70
29201;DHT22;16244;51.956;12.980;2022-11-23T11:08:52;6.60;91.50
29201;DHT22;16244;51.956;12.980;2022-11-23T11:11:23;6.60;91.60
29201;DHT22;16244;51.956;12.980;2022-11-23T11:14:00;6.60;91.70
29201;DHT22;16244;51.956;12.980;2022-11-23T11:16:30;6.60;91.70
29201;DHT22;16244;51.956;12.980;2022-11-23T11:18:58;6.70;91.70
29201;DHT22;16244;51.956;12.980;2022-11-23T11:21:31;6.70;91.70
29201;DHT22;16244;51.956;12.980;2022-11-23T11:24:01;6.70;91.90
29201;DHT22;16244;51.956;12.980;2022-11-23T11:26:29;6.80;91.60
29201;DHT22;16244;51.956;12.980;2022-11-23T11:29:00;6.80;91.50
29201;DHT22;16244;51.956;12.980;2022-11-23T11:31:45;7.00;91.40
29201;DHT22;16244;51.956;12.980;2022-11-23T11:34:24;7.10;91.10
29201;DHT22;16244;51.956;12.980;2022-11-23T11:37:00;7.10;91.10
29201;DHT22;16244;51.956;12.980;2022-11-23T11:39:32;7.10;90.70
29201;DHT22;16244;51.956;12.980;2022-11-23T11:42:03;7.00;90.80
29201;DHT22;16244;51.956;12.980;2022-11-23T11:44:36;7.00;90.50
29201;DHT22;16244;51.956;12.980;2022-11-23T11:47:15;6.80;90.90
29201;DHT22;16244;51.956;12.980;2022-11-23T11:49:46;6.70;91.10
29201;DHT22;16244;51.956;12.980;2022-11-23T11:52:18;6.60;91.30
29201;DHT22;16244;51.956;12.980;2022-11-23T11:54:52;6.60;91.40
29201;DHT22;16244;51.956;12.980;2022-11-23T11:57:24;6.50;91.50
29201;DHT22;16244;51.956;12.980;2022-11-23T11:59:56;6.50;91.60
29201;DHT22;16244;51.956;12.980;2022-11-23T12:02:26;6.50;91.50
29201;DHT22;16244;51.956;12.980;2022-11-23T12:05:02;6.50;91.60
29201;DHT22;16244;51.956;12.980;2022-11-23T12:07:35;6.70;91.50
29201;DHT22;16244;51.956;12.980;2022-11-23T12:10:10;6.70;91.40
29201;DHT22;16244;51.956;12.980;2022-11-23T12:12:39;6.80;91.10
29201;DHT22;16244;51.956;12.980;2022-11-23T12:15:16;6.70;91.10
29201;DHT22;16244;51.956;12.980;2022-11-23T12:18:03;6.70;91.20
29201;DHT22;16244;51.956;12.980;2022-11-23T12:20:40;6.70;91.00
29201;DHT22;16244;51.956;12.980;2022-11-23T12:23:20;6.70;91.20
29201;DHT22;16244;51.956;12.980;2022-11-23T12:25:57;6.80;91.10
29201;DHT22;16244;51.956;12.980;2022-11-23T12:28:43;6.80;91.10
29201;DHT22;16244;51.956;12.980;2022-11-23T12:31:21;6.80;91.30
29201;DHT22;16244;51.956;12.980;2022-11-23T12:34:03;6.80;91.00
29201;DHT22;16244;51.956;12.980;2022-11-23T12:39:46;6.80;90.90
29201;DHT22;16244;51.956;12.980;2022-11-23T12:42:24;6.80;90.90
29201;DHT22;16244;51.956;12.980;2022-11-23T12:45:07;6.80;91.20
29201;DHT22;16244;51.956;12.980;2022-11-23T12:47:49;6.70;91.40
29201;DHT22;16244;51.956;12.980;2022-11-23T12:50:25;6.70;91.50
29201;DHT22;16244;51.956;12.980;2022-11-23T12:53:00;6.80;91.60
29201;DHT22;16244;51.956;12.980;2022-11-23T12:55:35;6.80;91.40
29201;DHT22;16244;51.956;12.980;2022-11-23T12:58:09;6.70;91.40
29201;DHT22;16244;51.956;12.980;2022-11-23T13:00:42;6.60;91.60
29201;DHT22;16244;51.956;12.980;2022-11-23T13:06:29;6.60;91.80
29201;DHT22;16244;51.956;12.980;2022-11-23T13:09:15;6.60;91.90
29201;DHT22;16244;51.956;12.980;2022-11-23T13:12:01;6.50;91.90
29201;DHT22;16244;51.956;12.980;2022-11-23T13:14:35;6.50;91.70
29201;DHT22;16244;51.956;12.980;2022-11-23T13:17:17;6.50;91.80
29201;DHT22;16244;51.956;12.980;2022-11-23T13:20:21;6.40;91.90
29201;DHT22;16244;51.956;12.980;2022-11-23T13:22:54;6.40;92.40
29201;DHT22;16244;51.956;12.980;2022-11-23T13:25:24;6.20;92.50
29201;DHT22;16244;51.956;12.980;2022-11-23T13:27:58;6.20;92.80
29201;DHT22;16244;51.956;12.980;2022-11-23T13:30:29;6.10;93.10
29201;DHT22;16244;51.956;12.980;2022-11-23T13:32:59;6.10;93.50
29201;DHT22;16244;51.956;12.980;2022-11-23T13:35:53;6.10;93.40
29201;DHT22;16244;51.956;12.980;2022-11-23T13:38:35;6.10;93.50
29201;DHT22;16244;51.956;12.980;2022-11-23T13:41:03;6.00;93.70
29201;DHT22;16244;51.956;12.980;2022-11-23T13:43:50;6.00;93.90
29201;DHT22;16244;51.956;12.980;2022-11-23T13:46:22;6.00;94.00
29201;DHT22;16244;51.956;12.980;2022-11-23T13:48:54;6.00;94.00
29201;DHT22;16244;51.956;12.980;2022-11-23T13:51:27;5.90;94.10
29201;DHT22;16244;51.956;12.980;2022-11-23T13:53:58;5.90;94.20
29201;DHT22;16244;51.956;12.980;2022-11-23T13:56:32;5.90;94.20
29201;DHT22;16244;51.956;12.980;2022-11-23T13:59:29;5.90;94.30
29201;DHT22;16244;51.956;12.980;2022-11-23T14:04:49;5.70;94.40
29201;DHT22;16244;51.956;12.980;2022-11-23T14:07:20;5.60;94.50
29201;DHT22;16244;51.956;12.980;2022-11-23T14:09:51;5.60;94.40
29201;DHT22;16244;51.956;12.980;2022-11-23T14:12:24;5.50;94.40
29201;DHT22;16244;51.956;12.980;2022-11-23T14:15:02;5.40;94.70
29201;DHT22;16244;51.956;12.980;2022-11-23T14:20:48;5.20;94.80
29201;DHT22;16244;51.956;12.980;2022-11-23T14:23:36;5.10;94.80
29201;DHT22;16244;51.956;12.980;2022-11-23T14:26:17;5.00;94.90
29201;DHT22;16244;51.956;12.980;2022-11-23T14:28:55;4.80;95.00
29201;DHT22;16244;51.956;12.980;2022-11-23T14:31:36;4.70;95.10
29201;DHT22;16244;51.956;12.980;2022-11-23T14:34:15;4.60;95.20
29201;DHT22;16244;51.956;12.980;2022-11-23T14:36:48;4.50;95.40
29201;DHT22;16244;51.956;12.980;2022-11-23T14:40:00;4.40;95.60
29201;DHT22;16244;51.956;12.980;2022-11-23T14:42:29;4.30;95.70
29201;DHT22;16244;51.956;12.980;2022-11-23T14:45:01;4.20;95.70
29201;DHT22;16244;51.956;12.980;2022-11-23T14:47:30;4.20;95.60
29201;DHT22;16244;51.956;12.980;2022-11-23T14:49:57;4.10;95.60
29201;DHT22;16244;51.956;12.980;2022-11-23T14:52:26;4.10;95.60
29201;DHT22;16244;51.956;12.980;2022-11-23T14:54:57;4.00;95.60
29201;DHT22;16244;51.956;12.980;2022-11-23T14:57:28;3.90;95.60
29201;DHT22;16244;51.956;12.980;2022-11-23T15:00:00;3.90;95.70
29201;DHT22;16244;51.956;12.980;2022-11-23T15:02:33;3.80;95.80
29201;DHT22;16244;51.956;12.980;2022-11-23T15:05:05;3.70;95.90
29201;DHT22;16244;51.956;12.980;2022-11-23T15:07:43;3.70;95.90
29201;DHT22;16244;51.956;12.980;2022-11-23T15:10:35;3.60;95.80
29201;DHT22;16244;51.956;12.980;2022-11-23T15:13:17;3.50;95.80
29201;DHT22;16244;51.956;12.980;2022-11-23T15:15:47;3.40;95.70
29201;DHT22;16244;51.956;12.980;2022-11-23T15:18:26;3.30;95.80
29201;DHT22;16244;51.956;12.980;2022-11-23T15:20:54;3.30;95.80
29201;DHT22;16244;51.956;12.980;2022-11-23T15:23:27;3.20;95.90
29201;DHT22;16244;51.956;12.980;2022-11-23T15:25:58;3.10;96.00
29201;DHT22;16244;51.956;12.980;2022-11-23T15:28:27;3.00;96.00
29201;DHT22;16244;51.956;12.980;2022-11-23T15:30:56;3.00;96.00
29201;DHT22;16244;51.956;12.980;2022-11-23T15:33:23;3.00;96.10
29201;DHT22;16244;51.956;12.980;2022-11-23T15:35:52;2.90;96.10
29201;DHT22;16244;51.956;12.980;2022-11-23T15:38:19;2.80;96.10
29201;DHT22;16244;51.956;12.980;2022-11-23T15:40:48;2.90;96.20
29201;DHT22;16244;51.956;12.980;2022-11-23T15:43:18;2.80;96.20
29201;DHT22;16244;51.956;12.980;2022-11-23T15:46:01;2.70;96.20
29201;DHT22;16244;51.956;12.980;2022-11-23T15:48:31;2.70;96.30
29201;DHT22;16244;51.956;12.980;2022-11-23T15:51:00;2.60;96.30
29201;DHT22;16244;51.956;12.980;2022-11-23T15:53:30;2.60;96.30
29201;DHT22;16244;51.956;12.980;2022-11-23T15:55:59;2.60;96.20
29201;DHT22;16244;51.956;12.980;2022-11-23T15:58:29;2.60;96.20
29201;DHT22;16244;51.956;12.980;2022-11-23T16:01:04;2.50;96.20
29201;DHT22;16244;51.956;12.980;2022-11-23T16:03:34;2.50;96.20
29201;DHT22;16244;51.956;12.980;2022-11-23T16:06:15;2.40;96.30
29201;DHT22;16244;51.956;12.980;2022-11-23T16:08:43;2.30;96.40
29201;DHT22;16244;51.956;12.980;2022-11-23T16:11:22;2.20;96.50
29201;DHT22;16244;51.956;12.980;2022-11-23T16:14:13;2.20;96.60
29201;DHT22;16244;51.956;12.980;2022-11-23T16:16:43;2.20;96.60
29201;DHT22;16244;51.956;12.980;2022-11-23T16:19:23;2.10;96.50
29201;DHT22;16244;51.956;12.980;2022-11-23T16:21:54;2.10;96.50
29201;DHT22;16244;51.956;12.980;2022-11-23T16:24:23;2.10;96.50
29201;DHT22;16244;51.956;12.980;2022-11-23T16:26:51;2.10;96.50
29201;DHT22;16244;51.956;12.980;2022-11-23T16:29:24;2.10;96.60